Pozzuoli, Italy

9:31 AM CEST on August 26, 2016 (GMT +0200)
| | Change Station

Elev -9999 ft 0.00 °N, 0.00 °E | Updated

Clear
Clear
89 °F
Feels Like 88 °F
N
3
Wind Variable Wind from SE
Gusts mph

Today
High -- | Low -- °F
--% Chance of Precip.
Yesterday
High -- | Low -- °F
Precip. -- in
Pressure 30.04 in
Visibility -9999.0 miles
Clouds
Heat Index 88 °F
Dew Point 58 °F
Humidity 36%
Rainfall --
Snow Depth Not available.
6:24 AM 7:44 PM
Last Quarter, 37% visible
METAR LIRN 260720Z 04005KT 360V060 CAVOK 28/12 Q1017 NOSIG
Pressure 30.04 in
Visibility -9999.0 miles
Clouds
Heat Index 88 °F
Dew Point 58 °F
Humidity 36%
Rainfall --
Snow Depth Not available.
6:24 AM 7:44 PM
Last Quarter, 37% visible
METAR LIRN 260720Z 04005KT 360V060 CAVOK 28/12 Q1017 NOSIG

10-Day Weather Forecast

×

Almanac

Astronomy

Aug. 26, 2016 Rise Set
Actual Time
Civil Twilight
Nautical Twilight
Astronomical Twilight
Moon
Length of Visible Light
Length of Day
Tomorrow will be .
, % of the Moon is Illuminated

Today's Extremes

Country Highs Country Lows

Community

WunderPhotos

Upload Photos

1,935,062 photos uploaded!

WunderBlog® & News

Nearby

Air Quality

  Air Quality AQ Index Pollutant
Not available.

Snow Depth

Station Depth Elevation

Earthquake Activity

City Distance Mag. Time & Date
Minimum magnitude displayed is 2.5.

Coastal Water Temperatures

Place Temperature

Stations

Nearby Weather Stations

Station Location Temp. Windchill Dew Point Humidity Wind Precip. Elev Updated Type